sensor_id;sensor_type;location;lat;lon;timestamp;P1;durP1;ratioP1;P2;durP2;ratioP2
73850;SDS011;62190;51.548;5.688;2023-11-19T00:00:42;6.78;;;4.37;;
73850;SDS011;62190;51.548;5.688;2023-11-19T00:03:09;6.60;;;3.98;;
73850;SDS011;62190;51.548;5.688;2023-11-19T00:05:40;5.20;;;3.55;;
73850;SDS011;62190;51.548;5.688;2023-11-19T00:08:07;6.67;;;3.90;;
73850;SDS011;62190;51.548;5.688;2023-11-19T00:10:34;10.53;;;4.45;;
73850;SDS011;62190;51.548;5.688;2023-11-19T00:13:06;6.53;;;4.12;;
73850;SDS011;62190;51.548;5.688;2023-11-19T00:15:33;6.87;;;3.83;;
73850;SDS011;62190;51.548;5.688;2023-11-19T00:18:00;9.60;;;4.12;;
73850;SDS011;62190;51.548;5.688;2023-11-19T00:20:29;6.35;;;4.17;;
73850;SDS011;62190;51.548;5.688;2023-11-19T00:22:57;8.90;;;3.52;;
73850;SDS011;62190;51.548;5.688;2023-11-19T00:25:27;6.15;;;2.90;;
73850;SDS011;62190;51.548;5.688;2023-11-19T00:27:55;8.65;;;3.77;;
73850;SDS011;62190;51.548;5.688;2023-11-19T00:30:25;6.10;;;3.30;;
73850;SDS011;62190;51.548;5.688;2023-11-19T00:32:53;6.17;;;4.17;;
73850;SDS011;62190;51.548;5.688;2023-11-19T00:35:21;8.05;;;3.45;;
73850;SDS011;62190;51.548;5.688;2023-11-19T00:37:48;6.17;;;3.05;;
73850;SDS011;62190;51.548;5.688;2023-11-19T00:40:21;4.75;;;3.50;;
73850;SDS011;62190;51.548;5.688;2023-11-19T00:42:48;6.40;;;3.45;;
73850;SDS011;62190;51.548;5.688;2023-11-19T00:45:17;6.00;;;2.55;;
73850;SDS011;62190;51.548;5.688;2023-11-19T00:47:45;6.90;;;2.77;;
73850;SDS011;62190;51.548;5.688;2023-11-19T00:50:13;9.80;;;2.10;;
73850;SDS011;62190;51.548;5.688;2023-11-19T00:52:42;4.75;;;2.70;;
73850;SDS011;62190;51.548;5.688;2023-11-19T00:55:10;4.22;;;1.95;;
73850;SDS011;62190;51.548;5.688;2023-11-19T00:57:38;6.70;;;2.17;;
73850;SDS011;62190;51.548;5.688;2023-11-19T01:00:06;6.62;;;2.65;;
73850;SDS011;62190;51.548;5.688;2023-11-19T01:02:48;6.67;;;2.00;;
73850;SDS011;62190;51.548;5.688;2023-11-19T01:05:16;3.92;;;1.75;;
73850;SDS011;62190;51.548;5.688;2023-11-19T01:07:48;7.35;;;1.98;;
73850;SDS011;62190;51.548;5.688;2023-11-19T01:10:20;9.80;;;4.05;;
73850;SDS011;62190;51.548;5.688;2023-11-19T01:12:49;11.48;;;3.22;;
73850;SDS011;62190;51.548;5.688;2023-11-19T01:15:16;2.85;;;1.40;;
73850;SDS011;62190;51.548;5.688;2023-11-19T01:17:46;6.12;;;1.75;;
73850;SDS011;62190;51.548;5.688;2023-11-19T01:20:14;4.97;;;1.95;;
73850;SDS011;62190;51.548;5.688;2023-11-19T01:22:41;7.45;;;1.65;;
73850;SDS011;62190;51.548;5.688;2023-11-19T01:25:10;7.17;;;2.15;;
73850;SDS011;62190;51.548;5.688;2023-11-19T01:27:37;8.85;;;2.47;;
73850;SDS011;62190;51.548;5.688;2023-11-19T01:30:09;11.60;;;2.37;;
73850;SDS011;62190;51.548;5.688;2023-11-19T01:32:40;4.10;;;1.80;;
73850;SDS011;62190;51.548;5.688;2023-11-19T01:35:07;7.08;;;2.17;;
73850;SDS011;62190;51.548;5.688;2023-11-19T01:37:36;4.80;;;1.72;;
73850;SDS011;62190;51.548;5.688;2023-11-19T01:40:05;9.40;;;2.20;;
73850;SDS011;62190;51.548;5.688;2023-11-19T01:42:42;10.13;;;2.27;;
73850;SDS011;62190;51.548;5.688;2023-11-19T01:45:06;5.95;;;1.82;;
73850;SDS011;62190;51.548;5.688;2023-11-19T01:47:35;5.08;;;1.82;;
73850;SDS011;62190;51.548;5.688;2023-11-19T01:50:08;7.25;;;2.87;;
73850;SDS011;62190;51.548;5.688;2023-11-19T01:52:35;8.60;;;2.17;;
73850;SDS011;62190;51.548;5.688;2023-11-19T01:55:03;7.25;;;2.42;;
73850;SDS011;62190;51.548;5.688;2023-11-19T01:57:30;8.18;;;2.30;;
73850;SDS011;62190;51.548;5.688;2023-11-19T01:59:58;7.03;;;1.80;;
73850;SDS011;62190;51.548;5.688;2023-11-19T02:02:27;17.45;;;2.37;;
73850;SDS011;62190;51.548;5.688;2023-11-19T02:04:55;7.75;;;1.77;;
73850;SDS011;62190;51.548;5.688;2023-11-19T02:07:25;5.80;;;2.00;;
73850;SDS011;62190;51.548;5.688;2023-11-19T02:09:53;8.18;;;2.25;;
73850;SDS011;62190;51.548;5.688;2023-11-19T02:12:20;5.97;;;1.80;;
73850;SDS011;62190;51.548;5.688;2023-11-19T02:14:49;6.40;;;1.67;;
73850;SDS011;62190;51.548;5.688;2023-11-19T02:17:27;8.88;;;2.65;;
73850;SDS011;62190;51.548;5.688;2023-11-19T02:19:57;4.25;;;1.82;;
73850;SDS011;62190;51.548;5.688;2023-11-19T02:22:26;13.55;;;2.37;;
73850;SDS011;62190;51.548;5.688;2023-11-19T02:24:54;6.42;;;2.47;;
73850;SDS011;62190;51.548;5.688;2023-11-19T02:30:17;11.22;;;2.55;;
73850;SDS011;62190;51.548;5.688;2023-11-19T02:32:44;8.53;;;2.27;;
73850;SDS011;62190;51.548;5.688;2023-11-19T02:35:11;4.83;;;2.55;;
73850;SDS011;62190;51.548;5.688;2023-11-19T02:37:39;12.00;;;2.90;;
73850;SDS011;62190;51.548;5.688;2023-11-19T02:40:08;6.53;;;2.15;;
73850;SDS011;62190;51.548;5.688;2023-11-19T02:42:37;8.03;;;2.47;;
73850;SDS011;62190;51.548;5.688;2023-11-19T02:45:05;10.35;;;2.55;;
73850;SDS011;62190;51.548;5.688;2023-11-19T02:47:33;14.47;;;2.70;;
73850;SDS011;62190;51.548;5.688;2023-11-19T02:50:01;11.65;;;2.72;;
73850;SDS011;62190;51.548;5.688;2023-11-19T02:52:29;11.78;;;2.52;;
73850;SDS011;62190;51.548;5.688;2023-11-19T02:54:58;7.90;;;2.47;;
73850;SDS011;62190;51.548;5.688;2023-11-19T02:57:30;4.80;;;1.82;;
73850;SDS011;62190;51.548;5.688;2023-11-19T02:59:58;9.93;;;1.87;;
73850;SDS011;62190;51.548;5.688;2023-11-19T03:02:28;8.80;;;2.17;;
73850;SDS011;62190;51.548;5.688;2023-11-19T03:04:57;6.15;;;2.47;;
73850;SDS011;62190;51.548;5.688;2023-11-19T03:07:25;10.00;;;2.08;;
73850;SDS011;62190;51.548;5.688;2023-11-19T03:09:52;10.60;;;2.80;;
73850;SDS011;62190;51.548;5.688;2023-11-19T03:12:20;12.93;;;3.17;;
73850;SDS011;62190;51.548;5.688;2023-11-19T03:14:48;10.15;;;2.20;;
73850;SDS011;62190;51.548;5.688;2023-11-19T03:17:16;10.58;;;2.22;;
73850;SDS011;62190;51.548;5.688;2023-11-19T03:19:47;9.33;;;3.10;;
73850;SDS011;62190;51.548;5.688;2023-11-19T03:22:16;16.95;;;2.92;;
73850;SDS011;62190;51.548;5.688;2023-11-19T03:24:43;10.75;;;2.20;;
73850;SDS011;62190;51.548;5.688;2023-11-19T03:27:12;6.50;;;2.10;;
73850;SDS011;62190;51.548;5.688;2023-11-19T03:29:40;11.95;;;2.08;;
73850;SDS011;62190;51.548;5.688;2023-11-19T03:32:09;20.97;;;2.85;;
73850;SDS011;62190;51.548;5.688;2023-11-19T03:34:37;17.82;;;2.37;;
73850;SDS011;62190;51.548;5.688;2023-11-19T03:37:06;11.53;;;2.33;;
73850;SDS011;62190;51.548;5.688;2023-11-19T03:39:34;8.10;;;2.70;;
73850;SDS011;62190;51.548;5.688;2023-11-19T03:42:03;14.68;;;3.08;;
73850;SDS011;62190;51.548;5.688;2023-11-19T03:44:31;9.48;;;2.70;;
73850;SDS011;62190;51.548;5.688;2023-11-19T03:46:58;12.78;;;2.60;;
73850;SDS011;62190;51.548;5.688;2023-11-19T03:49:25;11.85;;;2.55;;
73850;SDS011;62190;51.548;5.688;2023-11-19T03:51:54;17.67;;;2.77;;
73850;SDS011;62190;51.548;5.688;2023-11-19T03:54:22;14.75;;;2.52;;
73850;SDS011;62190;51.548;5.688;2023-11-19T03:56:52;13.62;;;2.87;;
73850;SDS011;62190;51.548;5.688;2023-11-19T03:59:21;9.78;;;2.10;;
73850;SDS011;62190;51.548;5.688;2023-11-19T04:01:48;8.40;;;2.35;;
73850;SDS011;62190;51.548;5.688;2023-11-19T04:04:16;23.02;;;3.05;;
73850;SDS011;62190;51.548;5.688;2023-11-19T04:06:44;14.83;;;3.20;;
73850;SDS011;62190;51.548;5.688;2023-11-19T04:09:13;15.90;;;2.65;;
73850;SDS011;62190;51.548;5.688;2023-11-19T04:11:40;20.55;;;3.98;;
73850;SDS011;62190;51.548;5.688;2023-11-19T04:14:07;12.45;;;2.60;;
73850;SDS011;62190;51.548;5.688;2023-11-19T04:16:36;14.68;;;2.30;;
73850;SDS011;62190;51.548;5.688;2023-11-19T04:19:04;14.83;;;3.12;;
73850;SDS011;62190;51.548;5.688;2023-11-19T04:21:32;18.07;;;2.92;;
73850;SDS011;62190;51.548;5.688;2023-11-19T04:24:00;9.48;;;2.92;;
73850;SDS011;62190;51.548;5.688;2023-11-19T04:26:27;27.70;;;3.55;;
73850;SDS011;62190;51.548;5.688;2023-11-19T04:28:58;14.53;;;3.62;;
73850;SDS011;62190;51.548;5.688;2023-11-19T04:31:29;16.37;;;2.87;;
73850;SDS011;62190;51.548;5.688;2023-11-19T04:33:58;13.15;;;3.20;;
73850;SDS011;62190;51.548;5.688;2023-11-19T04:36:26;9.98;;;2.58;;
73850;SDS011;62190;51.548;5.688;2023-11-19T04:38:55;19.10;;;3.52;;
73850;SDS011;62190;51.548;5.688;2023-11-19T04:41:25;11.83;;;3.25;;
73850;SDS011;62190;51.548;5.688;2023-11-19T04:43:56;16.20;;;3.05;;
73850;SDS011;62190;51.548;5.688;2023-11-19T04:46:23;22.82;;;3.65;;
73850;SDS011;62190;51.548;5.688;2023-11-19T04:48:50;12.30;;;3.35;;
73850;SDS011;62190;51.548;5.688;2023-11-19T04:51:17;19.23;;;3.42;;
73850;SDS011;62190;51.548;5.688;2023-11-19T04:53:47;10.55;;;2.72;;
73850;SDS011;62190;51.548;5.688;2023-11-19T04:56:14;15.85;;;3.50;;
73850;SDS011;62190;51.548;5.688;2023-11-19T04:58:42;17.05;;;3.10;;
73850;SDS011;62190;51.548;5.688;2023-11-19T05:01:13;19.30;;;3.30;;
73850;SDS011;62190;51.548;5.688;2023-11-19T05:03:42;19.45;;;3.20;;
73850;SDS011;62190;51.548;5.688;2023-11-19T05:06:11;12.07;;;3.50;;
73850;SDS011;62190;51.548;5.688;2023-11-19T05:08:38;13.55;;;3.20;;
73850;SDS011;62190;51.548;5.688;2023-11-19T05:11:08;18.67;;;2.90;;
73850;SDS011;62190;51.548;5.688;2023-11-19T05:13:37;9.95;;;3.05;;
73850;SDS011;62190;51.548;5.688;2023-11-19T05:16:05;13.72;;;2.83;;
73850;SDS011;62190;51.548;5.688;2023-11-19T05:18:35;10.38;;;2.75;;
73850;SDS011;62190;51.548;5.688;2023-11-19T05:21:02;12.50;;;3.08;;
73850;SDS011;62190;51.548;5.688;2023-11-19T05:23:33;16.40;;;3.62;;
73850;SDS011;62190;51.548;5.688;2023-11-19T05:26:02;17.50;;;3.52;;
73850;SDS011;62190;51.548;5.688;2023-11-19T05:28:29;19.77;;;3.52;;
73850;SDS011;62190;51.548;5.688;2023-11-19T05:30:57;24.87;;;3.55;;
73850;SDS011;62190;51.548;5.688;2023-11-19T05:33:24;11.80;;;3.52;;
73850;SDS011;62190;51.548;5.688;2023-11-19T05:35:51;21.27;;;3.70;;
73850;SDS011;62190;51.548;5.688;2023-11-19T05:38:20;25.40;;;3.02;;
73850;SDS011;62190;51.548;5.688;2023-11-19T05:40:49;10.88;;;2.58;;
73850;SDS011;62190;51.548;5.688;2023-11-19T05:43:16;11.97;;;2.33;;
73850;SDS011;62190;51.548;5.688;2023-11-19T05:45:44;18.75;;;2.40;;
73850;SDS011;62190;51.548;5.688;2023-11-19T05:48:12;14.30;;;3.42;;
73850;SDS011;62190;51.548;5.688;2023-11-19T05:50:40;9.73;;;1.98;;
73850;SDS011;62190;51.548;5.688;2023-11-19T05:53:08;14.95;;;2.52;;
73850;SDS011;62190;51.548;5.688;2023-11-19T05:55:36;14.25;;;3.05;;
73850;SDS011;62190;51.548;5.688;2023-11-19T05:58:05;8.05;;;2.55;;
73850;SDS011;62190;51.548;5.688;2023-11-19T06:00:34;13.22;;;2.67;;
73850;SDS011;62190;51.548;5.688;2023-11-19T06:03:04;22.58;;;2.35;;
73850;SDS011;62190;51.548;5.688;2023-11-19T06:05:32;21.15;;;2.30;;
73850;SDS011;62190;51.548;5.688;2023-11-19T06:08:01;18.45;;;2.17;;
73850;SDS011;62190;51.548;5.688;2023-11-19T06:10:28;16.27;;;3.47;;
73850;SDS011;62190;51.548;5.688;2023-11-19T06:12:58;10.70;;;2.35;;
73850;SDS011;62190;51.548;5.688;2023-11-19T06:15:26;21.25;;;3.22;;
73850;SDS011;62190;51.548;5.688;2023-11-19T06:17:53;12.98;;;3.42;;
73850;SDS011;62190;51.548;5.688;2023-11-19T06:20:24;21.23;;;3.30;;
73850;SDS011;62190;51.548;5.688;2023-11-19T06:22:56;19.57;;;3.20;;
73850;SDS011;62190;51.548;5.688;2023-11-19T06:25:24;15.00;;;2.37;;
73850;SDS011;62190;51.548;5.688;2023-11-19T06:27:51;16.48;;;3.77;;
73850;SDS011;62190;51.548;5.688;2023-11-19T06:30:23;24.50;;;3.27;;
73850;SDS011;62190;51.548;5.688;2023-11-19T06:32:52;17.05;;;3.12;;
73850;SDS011;62190;51.548;5.688;2023-11-19T06:35:19;23.42;;;2.95;;
73850;SDS011;62190;51.548;5.688;2023-11-19T06:37:49;12.95;;;3.33;;
73850;SDS011;62190;51.548;5.688;2023-11-19T06:40:17;17.17;;;2.98;;
73850;SDS011;62190;51.548;5.688;2023-11-19T06:42:44;16.05;;;3.35;;
73850;SDS011;62190;51.548;5.688;2023-11-19T06:45:11;27.58;;;2.83;;
73850;SDS011;62190;51.548;5.688;2023-11-19T06:47:39;11.28;;;2.85;;
73850;SDS011;62190;51.548;5.688;2023-11-19T06:50:06;25.32;;;3.08;;
73850;SDS011;62190;51.548;5.688;2023-11-19T06:52:35;18.20;;;4.00;;
73850;SDS011;62190;51.548;5.688;2023-11-19T06:55:02;15.53;;;2.72;;
73850;SDS011;62190;51.548;5.688;2023-11-19T06:57:34;13.93;;;2.40;;
73850;SDS011;62190;51.548;5.688;2023-11-19T07:00:02;23.32;;;2.65;;
73850;SDS011;62190;51.548;5.688;2023-11-19T07:02:31;22.22;;;2.83;;
73850;SDS011;62190;51.548;5.688;2023-11-19T07:05:01;9.25;;;2.17;;
73850;SDS011;62190;51.548;5.688;2023-11-19T07:07:30;14.53;;;3.22;;
73850;SDS011;62190;51.548;5.688;2023-11-19T07:10:01;13.40;;;3.12;;
73850;SDS011;62190;51.548;5.688;2023-11-19T07:12:33;18.48;;;3.47;;
73850;SDS011;62190;51.548;5.688;2023-11-19T07:15:01;15.18;;;2.65;;
73850;SDS011;62190;51.548;5.688;2023-11-19T07:17:30;18.87;;;3.37;;
73850;SDS011;62190;51.548;5.688;2023-11-19T07:19:57;20.35;;;2.80;;
73850;SDS011;62190;51.548;5.688;2023-11-19T07:22:25;10.80;;;2.50;;
73850;SDS011;62190;51.548;5.688;2023-11-19T07:24:54;11.45;;;2.60;;
73850;SDS011;62190;51.548;5.688;2023-11-19T07:27:22;19.90;;;2.60;;
73850;SDS011;62190;51.548;5.688;2023-11-19T07:29:50;17.62;;;2.67;;
73850;SDS011;62190;51.548;5.688;2023-11-19T07:32:17;19.00;;;3.12;;
73850;SDS011;62190;51.548;5.688;2023-11-19T07:34:45;12.82;;;2.58;;
73850;SDS011;62190;51.548;5.688;2023-11-19T07:37:13;11.33;;;2.50;;
73850;SDS011;62190;51.548;5.688;2023-11-19T07:39:42;29.30;;;3.95;;
73850;SDS011;62190;51.548;5.688;2023-11-19T07:42:09;21.20;;;2.98;;
73850;SDS011;62190;51.548;5.688;2023-11-19T07:44:37;14.50;;;3.47;;
73850;SDS011;62190;51.548;5.688;2023-11-19T07:47:04;21.12;;;3.15;;
73850;SDS011;62190;51.548;5.688;2023-11-19T07:49:31;19.98;;;3.12;;
73850;SDS011;62190;51.548;5.688;2023-11-19T07:51:59;17.10;;;2.95;;
73850;SDS011;62190;51.548;5.688;2023-11-19T07:54:26;20.75;;;3.75;;
73850;SDS011;62190;51.548;5.688;2023-11-19T07:56:54;26.07;;;3.83;;
73850;SDS011;62190;51.548;5.688;2023-11-19T07:59:21;9.93;;;3.10;;
73850;SDS011;62190;51.548;5.688;2023-11-19T08:01:49;20.65;;;2.37;;
73850;SDS011;62190;51.548;5.688;2023-11-19T08:04:16;17.65;;;2.87;;
73850;SDS011;62190;51.548;5.688;2023-11-19T08:06:43;28.80;;;3.08;;
73850;SDS011;62190;51.548;5.688;2023-11-19T08:09:11;17.57;;;3.47;;
73850;SDS011;62190;51.548;5.688;2023-11-19T08:11:40;18.35;;;3.60;;
73850;SDS011;62190;51.548;5.688;2023-11-19T08:14:07;18.40;;;3.98;;
73850;SDS011;62190;51.548;5.688;2023-11-19T08:16:35;17.05;;;3.58;;
73850;SDS011;62190;51.548;5.688;2023-11-19T08:19:03;16.23;;;2.60;;
73850;SDS011;62190;51.548;5.688;2023-11-19T08:21:30;25.77;;;3.55;;
73850;SDS011;62190;51.548;5.688;2023-11-19T08:23:58;13.83;;;3.47;;
73850;SDS011;62190;51.548;5.688;2023-11-19T08:26:25;15.53;;;3.02;;
73850;SDS011;62190;51.548;5.688;2023-11-19T08:28:52;19.17;;;3.02;;
73850;SDS011;62190;51.548;5.688;2023-11-19T08:31:20;7.30;;;1.65;;
73850;SDS011;62190;51.548;5.688;2023-11-19T08:33:49;18.52;;;2.65;;
73850;SDS011;62190;51.548;5.688;2023-11-19T08:36:16;10.95;;;2.65;;
73850;SDS011;62190;51.548;5.688;2023-11-19T08:38:43;15.23;;;3.30;;
73850;SDS011;62190;51.548;5.688;2023-11-19T08:41:11;18.82;;;2.40;;
73850;SDS011;62190;51.548;5.688;2023-11-19T08:43:39;16.05;;;2.83;;
73850;SDS011;62190;51.548;5.688;2023-11-19T08:46:10;23.02;;;2.62;;
73850;SDS011;62190;51.548;5.688;2023-11-19T08:48:38;16.07;;;2.42;;
73850;SDS011;62190;51.548;5.688;2023-11-19T08:51:05;18.05;;;3.25;;
73850;SDS011;62190;51.548;5.688;2023-11-19T08:53:33;23.92;;;3.40;;
73850;SDS011;62190;51.548;5.688;2023-11-19T08:56:02;19.37;;;2.87;;
73850;SDS011;62190;51.548;5.688;2023-11-19T08:58:30;15.80;;;2.58;;
73850;SDS011;62190;51.548;5.688;2023-11-19T09:00:57;16.70;;;2.58;;
73850;SDS011;62190;51.548;5.688;2023-11-19T09:03:25;22.62;;;3.27;;
73850;SDS011;62190;51.548;5.688;2023-11-19T09:05:52;14.43;;;3.37;;
73850;SDS011;62190;51.548;5.688;2023-11-19T09:08:20;11.57;;;2.75;;
73850;SDS011;62190;51.548;5.688;2023-11-19T09:10:47;16.85;;;3.22;;
73850;SDS011;62190;51.548;5.688;2023-11-19T09:13:14;12.93;;;2.87;;
73850;SDS011;62190;51.548;5.688;2023-11-19T09:15:42;24.15;;;3.22;;
73850;SDS011;62190;51.548;5.688;2023-11-19T09:18:09;17.30;;;2.42;;
73850;SDS011;62190;51.548;5.688;2023-11-19T09:20:36;10.38;;;2.70;;
73850;SDS011;62190;51.548;5.688;2023-11-19T09:23:04;19.27;;;3.12;;
73850;SDS011;62190;51.548;5.688;2023-11-19T09:25:33;10.30;;;3.00;;
73850;SDS011;62190;51.548;5.688;2023-11-19T09:28:00;9.63;;;2.27;;
73850;SDS011;62190;51.548;5.688;2023-11-19T09:30:28;9.68;;;1.80;;
73850;SDS011;62190;51.548;5.688;2023-11-19T09:32:55;12.37;;;2.72;;
73850;SDS011;62190;51.548;5.688;2023-11-19T09:35:22;9.75;;;1.80;;
73850;SDS011;62190;51.548;5.688;2023-11-19T09:37:49;15.20;;;3.22;;
73850;SDS011;62190;51.548;5.688;2023-11-19T09:40:17;12.47;;;2.65;;
73850;SDS011;62190;51.548;5.688;2023-11-19T09:42:46;11.78;;;2.85;;
73850;SDS011;62190;51.548;5.688;2023-11-19T09:45:15;11.97;;;2.47;;
73850;SDS011;62190;51.548;5.688;2023-11-19T09:47:44;20.23;;;2.92;;
73850;SDS011;62190;51.548;5.688;2023-11-19T09:50:20;18.52;;;2.62;;
73850;SDS011;62190;51.548;5.688;2023-11-19T09:52:46;14.47;;;2.08;;
73850;SDS011;62190;51.548;5.688;2023-11-19T09:55:15;13.70;;;2.92;;
73850;SDS011;62190;51.548;5.688;2023-11-19T09:57:44;20.60;;;2.42;;
73850;SDS011;62190;51.548;5.688;2023-11-19T10:00:13;10.55;;;2.30;;
73850;SDS011;62190;51.548;5.688;2023-11-19T10:02:41;17.92;;;3.15;;
73850;SDS011;62190;51.548;5.688;2023-11-19T10:05:11;13.10;;;2.77;;
73850;SDS011;62190;51.548;5.688;2023-11-19T10:07:40;9.60;;;2.30;;
73850;SDS011;62190;51.548;5.688;2023-11-19T10:10:08;17.65;;;2.27;;
73850;SDS011;62190;51.548;5.688;2023-11-19T10:12:37;18.77;;;2.37;;
73850;SDS011;62190;51.548;5.688;2023-11-19T10:15:04;15.13;;;2.85;;
73850;SDS011;62190;51.548;5.688;2023-11-19T10:17:34;13.40;;;3.12;;
73850;SDS011;62190;51.548;5.688;2023-11-19T10:20:01;12.15;;;1.90;;
73850;SDS011;62190;51.548;5.688;2023-11-19T10:22:30;17.90;;;2.05;;
73850;SDS011;62190;51.548;5.688;2023-11-19T10:24:57;13.32;;;2.30;;
73850;SDS011;62190;51.548;5.688;2023-11-19T10:27:24;11.50;;;2.30;;
73850;SDS011;62190;51.548;5.688;2023-11-19T10:29:52;14.35;;;2.35;;
73850;SDS011;62190;51.548;5.688;2023-11-19T10:32:19;10.60;;;2.62;;
73850;SDS011;62190;51.548;5.688;2023-11-19T10:34:46;15.38;;;2.30;;
73850;SDS011;62190;51.548;5.688;2023-11-19T10:37:29;12.03;;;2.50;;
73850;SDS011;62190;51.548;5.688;2023-11-19T10:39:58;13.65;;;2.95;;
73850;SDS011;62190;51.548;5.688;2023-11-19T10:42:25;15.55;;;2.52;;
73850;SDS011;62190;51.548;5.688;2023-11-19T10:44:52;19.80;;;3.00;;
73850;SDS011;62190;51.548;5.688;2023-11-19T10:47:20;7.72;;;2.55;;
73850;SDS011;62190;51.548;5.688;2023-11-19T10:49:48;13.18;;;3.55;;
73850;SDS011;62190;51.548;5.688;2023-11-19T10:52:17;7.03;;;2.33;;
73850;SDS011;62190;51.548;5.688;2023-11-19T10:54:49;17.50;;;2.85;;
73850;SDS011;62190;51.548;5.688;2023-11-19T10:57:19;13.45;;;2.33;;
73850;SDS011;62190;51.548;5.688;2023-11-19T10:59:49;12.23;;;2.50;;
73850;SDS011;62190;51.548;5.688;2023-11-19T11:02:19;10.95;;;2.65;;
73850;SDS011;62190;51.548;5.688;2023-11-19T11:04:48;13.05;;;2.33;;
73850;SDS011;62190;51.548;5.688;2023-11-19T11:07:17;17.32;;;2.50;;
73850;SDS011;62190;51.548;5.688;2023-11-19T11:09:49;12.47;;;2.05;;
73850;SDS011;62190;51.548;5.688;2023-11-19T11:12:16;13.22;;;2.58;;
73850;SDS011;62190;51.548;5.688;2023-11-19T11:14:44;12.43;;;1.98;;
73850;SDS011;62190;51.548;5.688;2023-11-19T11:17:13;8.83;;;1.82;;
73850;SDS011;62190;51.548;5.688;2023-11-19T11:19:44;9.70;;;1.82;;
73850;SDS011;62190;51.548;5.688;2023-11-19T11:22:11;8.28;;;1.87;;
73850;SDS011;62190;51.548;5.688;2023-11-19T11:27:43;12.10;;;1.87;;
73850;SDS011;62190;51.548;5.688;2023-11-19T11:33:26;13.93;;;2.20;;
73850;SDS011;62190;51.548;5.688;2023-11-19T11:36:20;10.15;;;2.27;;
73850;SDS011;62190;51.548;5.688;2023-11-19T11:41:16;15.08;;;1.92;;
73850;SDS011;62190;51.548;5.688;2023-11-19T11:49:05;16.97;;;3.15;;
73850;SDS011;62190;51.548;5.688;2023-11-19T11:57:03;12.13;;;2.67;;
73850;SDS011;62190;51.548;5.688;2023-11-19T12:02:08;7.83;;;1.50;;
73850;SDS011;62190;51.548;5.688;2023-11-19T12:04:37;8.08;;;1.98;;
73850;SDS011;62190;51.548;5.688;2023-11-19T12:07:07;10.23;;;2.33;;
73850;SDS011;62190;51.548;5.688;2023-11-19T12:09:36;12.30;;;1.75;;
73850;SDS011;62190;51.548;5.688;2023-11-19T12:15:09;8.83;;;1.85;;
73850;SDS011;62190;51.548;5.688;2023-11-19T12:20:04;14.03;;;2.12;;
73850;SDS011;62190;51.548;5.688;2023-11-19T12:22:42;6.92;;;2.15;;
73850;SDS011;62190;51.548;5.688;2023-11-19T12:25:10;22.80;;;2.52;;
73850;SDS011;62190;51.548;5.688;2023-11-19T12:27:41;9.03;;;1.87;;
73850;SDS011;62190;51.548;5.688;2023-11-19T12:30:09;10.50;;;2.22;;
73850;SDS011;62190;51.548;5.688;2023-11-19T12:32:43;10.08;;;1.47;;
73850;SDS011;62190;51.548;5.688;2023-11-19T12:35:11;8.08;;;1.70;;
73850;SDS011;62190;51.548;5.688;2023-11-19T12:37:47;12.33;;;2.05;;
73850;SDS011;62190;51.548;5.688;2023-11-19T12:42:47;9.40;;;2.42;;
73850;SDS011;62190;51.548;5.688;2023-11-19T12:45:21;9.93;;;1.85;;
73850;SDS011;62190;51.548;5.688;2023-11-19T12:47:49;15.50;;;1.98;;
73850;SDS011;62190;51.548;5.688;2023-11-19T12:50:18;16.55;;;2.33;;
73850;SDS011;62190;51.548;5.688;2023-11-19T12:52:57;11.43;;;1.87;;
73850;SDS011;62190;51.548;5.688;2023-11-19T12:55:25;15.50;;;1.98;;
73850;SDS011;62190;51.548;5.688;2023-11-19T12:57:58;7.15;;;1.57;;
73850;SDS011;62190;51.548;5.688;2023-11-19T13:00:26;8.38;;;1.52;;
73850;SDS011;62190;51.548;5.688;2023-11-19T13:02:56;11.50;;;1.87;;
73850;SDS011;62190;51.548;5.688;2023-11-19T13:05:29;13.60;;;1.87;;
73850;SDS011;62190;51.548;5.688;2023-11-19T13:08:05;7.28;;;2.12;;
73850;SDS011;62190;51.548;5.688;2023-11-19T13:10:53;8.65;;;2.22;;
73850;SDS011;62190;51.548;5.688;2023-11-19T13:13:21;16.80;;;2.00;;
73850;SDS011;62190;51.548;5.688;2023-11-19T13:15:50;20.00;;;2.15;;
73850;SDS011;62190;51.548;5.688;2023-11-19T13:18:18;11.90;;;2.22;;
73850;SDS011;62190;51.548;5.688;2023-11-19T13:20:45;9.33;;;1.77;;
73850;SDS011;62190;51.548;5.688;2023-11-19T13:23:12;12.70;;;2.20;;
73850;SDS011;62190;51.548;5.688;2023-11-19T13:25:40;8.60;;;2.10;;
73850;SDS011;62190;51.548;5.688;2023-11-19T13:28:10;17.45;;;1.82;;
73850;SDS011;62190;51.548;5.688;2023-11-19T13:30:38;18.90;;;2.62;;
73850;SDS011;62190;51.548;5.688;2023-11-19T13:33:05;8.33;;;1.82;;
73850;SDS011;62190;51.548;5.688;2023-11-19T13:35:36;8.08;;;2.08;;
73850;SDS011;62190;51.548;5.688;2023-11-19T13:38:06;11.33;;;1.42;;
73850;SDS011;62190;51.548;5.688;2023-11-19T13:40:34;10.70;;;2.17;;
73850;SDS011;62190;51.548;5.688;2023-11-19T13:43:02;14.43;;;1.90;;
73850;SDS011;62190;51.548;5.688;2023-11-19T13:45:29;6.75;;;1.92;;
73850;SDS011;62190;51.548;5.688;2023-11-19T13:47:58;9.35;;;1.67;;
73850;SDS011;62190;51.548;5.688;2023-11-19T13:50:27;5.90;;;1.95;;
73850;SDS011;62190;51.548;5.688;2023-11-19T13:52:56;5.92;;;1.72;;
73850;SDS011;62190;51.548;5.688;2023-11-19T13:55:25;8.73;;;1.50;;
73850;SDS011;62190;51.548;5.688;2023-11-19T13:57:52;8.40;;;1.98;;
73850;SDS011;62190;51.548;5.688;2023-11-19T14:00:19;8.45;;;1.92;;
73850;SDS011;62190;51.548;5.688;2023-11-19T14:02:48;7.58;;;1.80;;
73850;SDS011;62190;51.548;5.688;2023-11-19T14:05:16;11.80;;;1.90;;
73850;SDS011;62190;51.548;5.688;2023-11-19T14:07:43;9.40;;;1.77;;
73850;SDS011;62190;51.548;5.688;2023-11-19T14:10:12;14.25;;;2.42;;
73850;SDS011;62190;51.548;5.688;2023-11-19T14:12:40;8.10;;;2.05;;
73850;SDS011;62190;51.548;5.688;2023-11-19T14:15:09;7.85;;;2.05;;
73850;SDS011;62190;51.548;5.688;2023-11-19T14:17:38;10.40;;;1.77;;
73850;SDS011;62190;51.548;5.688;2023-11-19T14:20:06;14.47;;;2.22;;
73850;SDS011;62190;51.548;5.688;2023-11-19T14:22:41;7.65;;;1.55;;
73850;SDS011;62190;51.548;5.688;2023-11-19T14:25:10;14.70;;;2.47;;
73850;SDS011;62190;51.548;5.688;2023-11-19T14:27:38;9.30;;;1.42;;
73850;SDS011;62190;51.548;5.688;2023-11-19T14:30:07;13.93;;;2.00;;
73850;SDS011;62190;51.548;5.688;2023-11-19T14:32:37;7.45;;;1.92;;
73850;SDS011;62190;51.548;5.688;2023-11-19T14:35:04;13.62;;;1.90;;
73850;SDS011;62190;51.548;5.688;2023-11-19T14:37:33;13.75;;;2.02;;
73850;SDS011;62190;51.548;5.688;2023-11-19T14:40:00;12.33;;;1.85;;
73850;SDS011;62190;51.548;5.688;2023-11-19T14:42:30;9.38;;;2.20;;
73850;SDS011;62190;51.548;5.688;2023-11-19T14:44:57;9.03;;;2.08;;
73850;SDS011;62190;51.548;5.688;2023-11-19T14:47:25;11.63;;;2.17;;
73850;SDS011;62190;51.548;5.688;2023-11-19T14:49:52;12.95;;;1.82;;
73850;SDS011;62190;51.548;5.688;2023-11-19T14:52:19;11.85;;;2.12;;
73850;SDS011;62190;51.548;5.688;2023-11-19T14:54:48;11.00;;;1.98;;
73850;SDS011;62190;51.548;5.688;2023-11-19T14:57:17;10.98;;;1.70;;
73850;SDS011;62190;51.548;5.688;2023-11-19T14:59:45;10.10;;;1.90;;
73850;SDS011;62190;51.548;5.688;2023-11-19T15:02:12;16.15;;;2.50;;
73850;SDS011;62190;51.548;5.688;2023-11-19T15:04:39;6.33;;;1.95;;
73850;SDS011;62190;51.548;5.688;2023-11-19T15:07:08;13.70;;;2.17;;
73850;SDS011;62190;51.548;5.688;2023-11-19T15:09:36;12.18;;;2.10;;
73850;SDS011;62190;51.548;5.688;2023-11-19T15:12:04;5.17;;;1.42;;
73850;SDS011;62190;51.548;5.688;2023-11-19T15:14:31;5.72;;;1.42;;
73850;SDS011;62190;51.548;5.688;2023-11-19T15:16:59;11.05;;;1.98;;
73850;SDS011;62190;51.548;5.688;2023-11-19T15:19:26;7.75;;;1.85;;